Time;durP1;ratioP1;P1;durP2;ratioP2;P2;SDS_P1;SDS_P2;PMS_P1;PMS_P2;Temp;Humidity;BMP_temperature;BMP_pressure;BME280_temperature;BME280_humidity;BME280_pressure;Samples;Min_cycle;Max_cycle;Signal;HPM_P1;HPM_P2
2022/03/03 00:01:48;;;;;;;;;80.00;60.50;;;;;0.26;63.75;99739.75;6280258;20;2500271;-43
2022/03/03 00:04:19;;;;;;;;;83.00;63.67;;;;;0.82;61.44;99743.06;6284441;20;3647183;-42
2022/03/03 00:06:49;;;;;;;;;85.33;64.33;;;;;0.79;61.08;99737.81;6315196;20;3643111;-45
2022/03/03 00:09:19;;;;;;;;;88.33;65.00;;;;;0.21;64.08;99750.41;6314538;20;3648152;-43
2022/03/03 00:11:48;;;;;;;;;90.33;66.00;;;;;0.60;62.33;99746.13;6312906;20;3656999;-43
2022/03/03 00:14:18;;;;;;;;;100.33;71.00;;;;;0.51;62.21;99743.69;6314854;20;3673191;-42
2022/03/03 00:16:48;;;;;;;;;101.00;72.33;;;;;0.20;64.45;99743.38;6317943;20;3665883;-42
2022/03/03 00:19:18;;;;;;;;;107.67;87.67;;;;;0.68;62.49;99745.97;6314940;20;3677390;-41
2022/03/03 00:21:47;;;;;;;;;122.00;92.00;;;;;0.67;62.15;99748.66;6283125;20;3688764;-42
2022/03/03 00:24:17;;;;;;;;;128.00;103.33;;;;;0.36;62.40;99747.47;6282603;20;3709725;-42
2022/03/03 00:26:47;;;;;;;;;125.00;92.33;;;;;0.17;64.62;99744.31;6283980;20;3705569;-42
2022/03/03 00:29:17;;;;;;;;;107.33;84.67;;;;;-0.02;65.24;99743.78;6282933;20;3680438;-42
2022/03/03 00:31:47;;;;;;;;;106.67;82.67;;;;;0.47;63.34;99739.34;6283916;20;3681519;-43
2022/03/03 00:34:16;;;;;;;;;99.67;69.67;;;;;0.73;61.78;99745.88;6280370;20;3655568;-43
2022/03/03 00:36:46;;;;;;;;;89.00;66.67;;;;;0.33;63.11;99744.03;6314779;20;3666950;-43
2022/03/03 00:39:15;;;;;;;;;79.00;62.00;;;;;0.11;64.44;99744.44;6313822;20;2866951;-41
2022/03/03 00:41:43;;;;;;;;;65.00;53.50;;;;;0.24;63.60;99747.72;6282136;20;2496928;-43
2022/03/03 00:44:12;;;;;;;;;71.50;54.00;;;;;-0.33;65.23;99738.16;6280438;20;2870164;-42
2022/03/03 00:46:40;;;;;;;;;71.00;56.00;;;;;-0.57;66.95;99733.28;6278001;20;2491971;-42
2022/03/03 00:49:08;;;;;;;;;71.00;55.00;;;;;-0.59;67.32;99728.03;6279962;20;2500259;-44
2022/03/03 00:51:36;;;;;;;;;71.50;53.00;;;;;-0.73;67.90;99738.78;6278783;20;2515870;-43
2022/03/03 00:54:05;;;;;;;;;63.33;45.33;;;;;-0.35;65.46;99723.25;6279277;20;2885726;-42
2022/03/03 00:56:34;;;;;;;;;66.67;50.33;;;;;-0.77;66.77;99725.66;6315332;20;3611821;-42
2022/03/03 00:59:04;;;;;;;;;72.50;50.00;;;;;-0.98;67.68;99727.72;6279775;20;2886092;-42
2022/03/03 01:01:32;;;;;;;;;68.00;51.00;;;;;-1.17;68.71;99723.59;6278042;20;2497189;-43
2022/03/03 01:04:00;;;;;;;;;65.50;50.00;;;;;-1.20;69.52;99721.88;6277475;20;2500278;-43
2022/03/03 01:06:29;;;;;;;;;70.50;51.50;;;;;-1.19;69.38;99723.59;6281373;20;2880586;-41
2022/03/03 01:08:57;;;;;;;;;72.50;56.00;;;;;-1.22;69.83;99722.78;6278324;20;2500239;-43
2022/03/03 01:11:25;;;;;;;;;71.50;56.00;;;;;-1.24;69.86;99712.25;6278814;20;2508613;-46
2022/03/03 01:13:53;;;;;;;;;73.00;51.50;;;;;-1.24;69.68;99714.03;6283037;20;2871292;-42
2022/03/03 01:16:22;;;;;;;;;71.50;55.00;;;;;-0.65;68.04;99714.06;6283058;20;2855478;-42
2022/03/03 01:18:51;;;;;;;;;74.00;52.50;;;;;-1.03;68.00;99708.44;6282673;20;2877358;-41
2022/03/03 01:21:19;;;;;;;;;70.00;55.50;;;;;-0.57;67.38;99706.91;6279192;20;2500405;-43
2022/03/03 01:23:47;;;;;;;;;69.00;57.00;;;;;-0.67;67.68;99701.78;6277585;20;2495077;-42
2022/03/03 01:26:17;;;;;;;;;70.00;56.00;;;;;-0.38;66.90;99697.78;6282273;20;2858794;-42
2022/03/03 01:28:45;;;;;;;;;72.50;56.50;;;;;-0.69;67.51;99703.56;6282804;20;2878399;-43
2022/03/03 01:31:13;;;;;;;;;63.00;51.00;;;;;-0.91;67.42;99699.53;6277084;20;2500445;-42
2022/03/03 01:33:42;;;;;;;;;69.50;49.50;;;;;-0.85;67.61;99688.88;6281030;20;2881685;-43
2022/03/03 01:36:11;;;;;;;;;57.50;47.50;;;;;-1.11;68.61;99686.63;6281871;20;2861706;-42
2022/03/03 01:38:39;;;;;;;;;58.00;48.50;;;;;-1.30;68.48;99693.03;6277488;20;2508587;-43
2022/03/03 01:41:09;;;;;;;;;62.33;44.67;;;;;-1.12;68.06;99684.88;6282697;20;2876316;-43
2022/03/03 01:43:39;;;;;;;;;59.00;46.00;;;;;-1.16;67.27;99684.06;6313725;20;2872114;-42
2022/03/03 01:46:08;;;;;;;;;60.00;45.50;;;;;-0.78;66.27;99685.25;6280874;20;2870164;-43
2022/03/03 01:48:38;;;;;;;;;53.00;41.33;;;;;-0.87;65.98;99685.38;6282972;20;2885660;-42
2022/03/03 01:51:06;;;;;;;;;61.00;45.00;;;;;-0.72;65.56;99685.16;6313694;20;2870149;-42
2022/03/03 01:53:37;;;;;;;;;53.50;45.00;;;;;-0.71;65.79;99679.00;6281610;20;2860697;-43
2022/03/03 01:56:07;;;;;;;;;68.50;49.50;;;;;-1.25;67.90;99675.41;6278592;20;2489836;-42
2022/03/03 01:58:38;;;;;;;;;54.00;44.00;;;;;-1.08;67.93;99669.91;6276521;20;2508605;-43
2022/03/03 02:01:07;;;;;;;;;63.33;47.67;;;;;-0.76;66.62;99680.84;6283090;20;2876290;-42
2022/03/03 02:03:37;;;;;;;;;56.00;44.50;;;;;-0.67;65.69;99678.03;6313042;20;2869021;-43
2022/03/03 02:06:06;;;;;;;;;67.50;47.00;;;;;-0.69;65.89;99673.69;6280341;20;2880603;-41
2022/03/03 02:08:34;;;;;;;;;56.50;44.50;;;;;-0.78;66.69;99682.63;6281561;20;2869144;-43
2022/03/03 02:11:02;;;;;;;;;58.50;48.00;;;;;-1.24;68.52;99678.00;6274345;20;2495081;-42
2022/03/03 02:13:31;;;;;;;;;53.50;43.50;;;;;-1.36;68.94;99663.25;6282031;20;2877382;-42
2022/03/03 02:16:00;;;;;;;;;55.50;48.50;;;;;-1.32;69.92;99671.97;6280603;20;2836849;-42
2022/03/03 02:18:29;;;;;;;;;66.00;49.00;;;;;-0.92;68.33;99674.06;6280209;20;2881550;-42
2022/03/03 02:20:57;;;;;;;;;66.00;52.50;;;;;-0.98;68.47;99663.59;6280556;20;2869030;-43
2022/03/03 02:23:26;;;;;;;;;76.00;52.50;;;;;-1.35;69.60;99664.13;6282353;20;2890870;-43
2022/03/03 02:25:54;;;;;;;;;82.50;59.00;;;;;-1.40;70.13;99668.59;6274744;20;2499801;-42
2022/03/03 02:28:21;;;;;;;;;70.00;52.00;;;;;-1.63;71.33;99672.41;6276270;20;2531613;-43
2022/03/03 02:30:51;;;;;;;;;84.67;61.00;;;;;-1.53;71.40;99667.00;6279451;20;2887885;-42
2022/03/03 02:33:19;;;;;;;;;77.50;58.00;;;;;-1.59;71.48;99665.31;6308897;20;2500306;-42
2022/03/03 02:35:47;;;;;;;;;72.50;53.00;;;;;-1.83;72.25;99661.25;6277055;20;2492948;-42
2022/03/03 02:38:16;;;;;;;;;82.00;60.67;;;;;-1.63;71.88;99653.97;6281172;20;2888866;-43
2022/03/03 02:40:45;;;;;;;;;76.00;58.00;;;;;-1.69;71.45;99648.78;6312592;20;2871261;-42
2022/03/03 02:43:14;;;;;;;;;77.50;54.00;;;;;-1.67;71.47;99647.00;6280987;20;2880527;-43
2022/03/03 02:45:42;;;;;;;;;72.50;54.50;;;;;-1.59;71.65;99646.91;6275485;20;2500291;-42
2022/03/03 02:48:10;;;;;;;;;73.50;48.50;;;;;-1.78;71.08;99643.63;6280063;20;2874193;-44
2022/03/03 02:50:39;;;;;;;;;65.33;48.00;;;;;-2.08;72.10;99639.59;6278432;20;2880476;-43
2022/03/03 02:53:07;;;;;;;;;53.50;40.50;;;;;-2.17;72.77;99634.44;6305498;20;2508597;-42
2022/03/03 02:55:35;;;;;;;;;63.00;46.00;;;;;-2.06;72.47;99638.69;6275517;20;2501305;-43
2022/03/03 02:58:05;;;;;;;;;59.00;46.00;;;;;-1.96;72.25;99631.56;6276116;20;2500287;-43
2022/03/03 03:00:39;;;;;;;;;68.67;43.00;;;;;-2.12;72.01;99638.75;6277737;20;2899278;-47
2022/03/03 03:03:07;;;;;;;;;54.50;47.50;;;;;-1.92;71.33;99640.28;6309414;20;2503406;-43
2022/03/03 03:05:36;;;;;;;;;74.00;54.00;;;;;-1.93;70.78;99628.03;6275291;20;2508614;-44
2022/03/03 03:08:05;;;;;;;;;78.50;59.50;;;;;-2.43;72.18;99632.94;6278687;20;2881539;-42
2022/03/03 03:10:33;;;;;;;;;56.00;45.00;;;;;-2.35;72.71;99632.88;6274332;20;2882660;-42
2022/03/03 03:13:02;;;;;;;;;79.00;60.50;;;;;-2.33;72.68;99628.47;6273122;20;2500307;-42
2022/03/03 03:15:31;;;;;;;;;92.00;63.50;;;;;-2.35;73.56;99622.34;6273107;20;2500286;-42
2022/03/03 03:18:22;;;;;;;;;85.00;59.50;;;;;-2.49;73.46;99633.03;6271876;20;2500255;-42
2022/03/03 03:20:53;;;;;;;;;85.50;59.50;;;;;-2.38;73.46;99623.25;6273085;20;2500784;-42
2022/03/03 03:23:23;;;;;;;;;85.00;61.50;;;;;-2.69;72.81;99627.94;6273722;20;2500401;-43
2022/03/03 03:25:52;;;;;;;;;69.50;54.00;;;;;-2.37;73.10;99626.75;6272775;20;2500238;-41
2022/03/03 03:28:21;;;;;;;;;85.33;63.33;;;;;-2.29;72.86;99619.66;6280539;20;2903465;-42
2022/03/03 03:30:51;;;;;;;;;80.00;60.00;;;;;-2.57;73.47;99624.34;6311865;20;2880484;-42
2022/03/03 03:33:19;;;;;;;;;78.50;54.00;;;;;-2.32;73.14;99619.69;6275258;20;2498196;-42
2022/03/03 03:35:48;;;;;;;;;60.50;46.00;;;;;-2.37;72.50;99626.75;6279302;20;2885679;-42
2022/03/03 03:38:16;;;;;;;;;72.00;54.00;;;;;-2.67;73.14;99618.28;6276056;20;2493389;-42
2022/03/03 03:40:45;;;;;;;;;62.00;48.00;;;;;-2.57;72.48;99621.72;6280665;20;2851372;-42
2022/03/03 03:43:13;;;;;;;;;64.00;39.50;;;;;-2.68;72.78;99627.94;6278369;20;2500445;-42
2022/03/03 03:45:42;;;;;;;;;37.33;26.33;;;;;-2.61;73.64;99628.72;6283218;20;3596114;-42
2022/03/03 03:48:10;;;;;;;;;46.50;39.00;;;;;-2.65;73.13;99619.16;6280034;20;2500277;-42
2022/03/03 03:50:40;;;;;;;;;62.00;45.00;;;;;-2.71;74.00;99627.97;6284950;20;2891968;-42
2022/03/03 03:53:10;;;;;;;;;61.00;46.00;;;;;-2.36;72.12;99620.63;6315559;20;2883566;-43
2022/03/03 03:55:38;;;;;;;;;46.50;43.00;;;;;-2.04;71.15;99620.25;6284818;20;2867954;-42
2022/03/03 03:58:07;;;;;;;;;47.50;41.50;;;;;-1.84;69.97;99615.66;6285438;20;2879427;-42
2022/03/03 04:00:36;;;;;;;;;45.67;36.67;;;;;-2.07;70.44;99620.31;6280883;20;2878383;-43
2022/03/03 04:03:05;;;;;;;;;59.00;45.00;;;;;-2.36;71.42;99612.75;6315121;20;2872123;-41
2022/03/03 04:05:35;;;;;;;;;54.33;39.67;;;;;-2.32;72.11;99609.16;6282141;20;3638814;-42
2022/03/03 04:08:04;;;;;;;;;57.50;47.00;;;;;-2.67;72.55;99613.03;6285087;20;2858609;-42
2022/03/03 04:10:32;;;;;;;;;78.00;57.00;;;;;-2.39;72.56;99605.75;6279880;20;2767943;-42
2022/03/03 04:13:01;;;;;;;;;81.20;57.00;;;;;-2.72;73.69;99613.06;6312501;20;3621129;-42
2022/03/03 04:15:31;;;;;;;;;133.67;103.33;;;;;-3.20;75.20;99609.09;6284316;20;3698157;-41
2022/03/03 04:18:01;;;;;;;;;125.00;88.33;;;;;-3.00;74.48;99612.44;6283054;20;3705477;-41
2022/03/03 04:20:31;;;;;;;;;132.33;93.33;;;;;-3.12;75.24;99610.78;6282491;20;3693968;-42
2022/03/03 04:23:00;;;;;;;;;120.33;87.67;;;;;-2.98;74.83;99610.66;6294138;20;3703358;-43
2022/03/03 04:25:30;;;;;;;;;99.50;67.67;;;;;-3.49;76.44;99610.16;6280154;20;3656530;-42
2022/03/03 04:28:02;;;;;;;;;102.33;73.00;;;;;-3.39;76.42;99606.59;6314231;20;3680417;-41
2022/03/03 04:30:32;;;;;;;;;115.67;77.33;;;;;-3.46;77.06;99607.50;6313319;20;3697079;-42
2022/03/03 04:33:01;;;;;;;;;101.33;67.33;;;;;-2.75;75.88;99613.09;6281599;20;2909625;-42
2022/03/03 04:35:30;;;;;;;;;121.00;79.00;;;;;-3.06;76.53;99603.72;6315191;20;2821094;-43
2022/03/03 04:38:00;;;;;;;;;110.00;73.00;;;;;-2.75;75.41;99614.84;6281894;20;3676295;-42
2022/03/03 04:40:30;;;;;;;;;115.33;86.33;;;;;-2.92;75.14;99605.38;6312318;20;3695074;-47
2022/03/03 04:43:00;;;;;;;;;144.67;99.67;;;;;-2.96;75.25;99610.66;6280456;20;3694994;-46
2022/03/03 04:45:29;;;;;;;;;121.33;81.33;;;;;-3.11;76.39;99611.63;6279521;20;3692970;-42
2022/03/03 04:47:59;;;;;;;;;110.67;75.00;;;;;-2.87;75.08;99616.72;6281591;20;3686780;-44
2022/03/03 04:50:30;;;;;;;;;110.00;77.33;;;;;-2.77;74.91;99616.63;6280190;20;3675315;-42
2022/03/03 04:52:59;;;;;;;;;80.00;49.00;;;;;-2.75;75.26;99618.34;6314524;20;3633572;-43
2022/03/03 04:55:30;;;;;;;;;90.33;61.67;;;;;-2.33;75.55;99620.59;6280696;20;2895057;-44
2022/03/03 04:57:59;;;;;;;;;63.67;44.33;;;;;-2.13;74.51;99616.00;6313220;20;2896351;-44
2022/03/03 05:00:28;;;;;;;;;73.00;52.00;;;;;-2.31;75.70;99609.16;6309886;20;2890955;-42
2022/03/03 05:02:57;;;;;;;;;75.33;52.00;;;;;-2.29;75.52;99611.75;6281407;20;2887867;-45
2022/03/03 05:05:26;;;;;;;;;84.50;63.00;;;;;-2.51;75.64;99609.38;6311617;20;2889946;-43
2022/03/03 05:07:55;;;;;;;;;81.00;59.00;;;;;-2.35;76.15;99609.22;6280679;20;2878432;-45
2022/03/03 05:10:25;;;;;;;;;87.33;64.33;;;;;-2.47;74.95;99611.09;6280235;20;2897263;-43
2022/03/03 05:12:53;;;;;;;;;77.00;54.00;;;;;-2.90;75.09;99614.13;6306978;20;2502794;-43
2022/03/03 05:15:22;;;;;;;;;65.00;49.00;;;;;-3.23;76.22;99619.63;6282052;20;2859004;-43
2022/03/03 05:17:55;;;;;;;;;67.00;48.50;;;;;-3.29;75.87;99611.78;6277305;20;2506538;-43
2022/03/03 05:20:25;;;;;;;;;52.00;39.33;;;;;-3.65;76.18;99619.00;6278248;20;2887147;-42
2022/03/03 05:22:54;;;;;;;;;59.00;48.00;;;;;-3.71;77.25;99619.91;6312928;20;2877884;-46
2022/03/03 05:25:23;;;;;;;;;52.50;40.00;;;;;-3.69;75.85;99622.50;6281148;20;2884770;-44
2022/03/03 05:27:51;;;;;;;;;42.00;36.00;;;;;-3.91;77.24;99621.75;6277481;20;2863825;-44
2022/03/03 05:30:20;;;;;;;;;69.50;48.00;;;;;-3.57;77.80;99625.06;6278855;20;2865988;-44
2022/03/03 05:32:49;;;;;;;;;92.33;66.00;;;;;-3.09;76.20;99623.00;6279903;20;2905708;-43
2022/03/03 05:35:18;;;;;;;;;68.00;56.00;;;;;-3.22;76.05;99621.34;6310603;20;2510808;-43
2022/03/03 05:37:48;;;;;;;;;66.50;48.50;;;;;-3.33;77.09;99624.06;6287381;20;2885660;-44
2022/03/03 05:40:17;;;;;;;;;69.00;49.00;;;;;-3.31;78.73;99628.41;6283120;20;2884093;-44
2022/03/03 05:42:46;;;;;;;;;68.33;52.00;;;;;-2.64;76.73;99628.75;6286397;20;3619055;-43
2022/03/03 05:45:14;;;;;;;;;78.50;56.00;;;;;-3.14;77.92;99622.16;6282414;20;2510715;-43
2022/03/03 05:47:46;;;;;;;;;69.50;52.00;;;;;-3.03;78.39;99620.31;6282455;20;2878369;-46
2022/03/03 05:50:15;;;;;;;;;78.00;62.00;;;;;-2.94;78.45;99620.28;6278082;20;2522305;-43
2022/03/03 05:52:44;;;;;;;;;89.33;64.00;;;;;-2.93;79.36;99629.88;6279125;20;2896282;-42
2022/03/03 05:55:13;;;;;;;;;79.00;60.00;;;;;-2.70;78.50;99628.81;6311055;20;2881571;-42
2022/03/03 05:57:49;;;;;;;;;81.00;60.50;;;;;-2.60;77.97;99633.13;6282731;20;2878528;-43
2022/03/03 06:00:18;;;;;;;;;77.00;57.50;;;;;-2.13;76.22;99642.28;6273098;20;2500373;-43
2022/03/03 06:02:54;;;;;;;;;82.50;60.00;;;;;-1.78;73.34;99627.84;6281536;20;2894051;-42
2022/03/03 06:05:28;;;;;;;;;101.33;67.67;;;;;-1.93;72.71;99639.41;6280511;20;3662837;-43
2022/03/03 06:08:06;;;;;;;;;84.50;68.00;;;;;-2.31;74.33;99639.84;6309254;20;2500297;-43
2022/03/03 06:10:51;;;;;;;;;95.00;69.67;;;;;-2.41;75.65;99641.69;6283809;20;3655477;-43
2022/03/03 06:13:24;;;;;;;;;104.33;75.00;;;;;-2.10;74.40;99642.25;6315981;20;3686717;-42
2022/03/03 06:15:54;;;;;;;;;105.00;76.00;;;;;-1.72;73.08;99640.06;6316489;20;3671082;-43
2022/03/03 06:18:32;;;;;;;;;105.33;75.67;;;;;-1.66;72.55;99643.50;6316685;20;3674299;-42
2022/03/03 06:21:01;;;;;;;;;105.00;76.00;;;;;-1.79;73.37;99644.50;6315757;20;3672170;-47
2022/03/03 06:23:31;;;;;;;;;100.00;72.67;;;;;-1.79;73.78;99644.50;6313809;20;3685837;-42
2022/03/03 06:26:09;;;;;;;;;106.67;79.00;;;;;-1.70;74.23;99640.91;6316464;20;3677274;-42
2022/03/03 06:28:39;;;;;;;;;105.00;76.67;;;;;-1.58;74.21;99641.63;6311727;20;3656562;-43
2022/03/03 06:31:09;;;;;;;;;102.00;75.00;;;;;-1.43;74.02;99650.19;6315139;20;3676237;-42
2022/03/03 06:33:40;;;;;;;;;98.33;71.00;;;;;-1.40;74.02;99650.16;6316750;20;2896157;-43
2022/03/03 06:36:10;;;;;;;;;97.00;70.33;;;;;-0.34;70.35;99645.84;6315520;20;2911960;-44
2022/03/03 06:38:40;;;;;;;;;91.33;64.33;;;;;-0.50;71.41;99651.41;6313889;20;2911945;-42
2022/03/03 06:41:10;;;;;;;;;89.33;67.33;;;;;-0.08;69.83;99658.56;6316283;20;2896123;-44
2022/03/03 06:43:41;;;;;;;;;94.67;72.33;;;;;-0.08;70.41;99648.00;6316413;20;2887392;-41
2022/03/03 06:46:10;;;;;;;;;92.00;70.33;;;;;0.18;68.18;99651.00;6315963;20;3647093;-44
2022/03/03 06:48:40;;;;;;;;;90.67;67.67;;;;;0.57;67.19;99650.22;6312566;20;3645118;-42
2022/03/03 06:51:17;;;;;;;;;99.33;70.00;;;;;0.68;67.04;99644.69;6317246;20;3652320;-42
2022/03/03 06:53:58;;;;;;;;;99.67;72.33;;;;;0.66;66.08;99642.09;6314674;20;3647169;-45
2022/03/03 06:56:30;;;;;;;;;86.67;65.00;;;;;1.20;64.57;99654.94;6313177;20;2897154;-42
2022/03/03 06:59:02;;;;;;;;;94.00;71.00;;;;;1.14;64.98;99648.94;6312084;20;3652386;-42
2022/03/03 07:01:31;;;;;;;;;107.00;87.00;;;;;1.24;64.45;99640.75;6311488;20;3688778;-44
2022/03/03 07:04:02;;;;;;;;;109.67;89.33;;;;;1.61;63.75;99641.63;6284391;20;3690821;-42
2022/03/03 07:06:33;;;;;;;;;105.67;79.67;;;;;2.74;60.96;99651.69;6279824;20;3699290;-44
2022/03/03 07:09:04;;;;;;;;;92.67;72.00;;;;;3.84;56.11;99647.19;6278238;20;3661683;-44
2022/03/03 07:11:34;;;;;;;;;90.00;68.33;;;;;4.60;54.40;99648.88;6314872;20;3663748;-43
2022/03/03 07:14:05;;;;;;;;;88.00;65.00;;;;;4.88;52.18;99652.28;6281374;20;3646195;-43
2022/03/03 07:17:05;;;;;;;;;93.33;75.33;;;;;5.33;51.77;99649.59;6314380;20;3663812;-44
2022/03/03 07:19:37;;;;;;;;;86.67;64.33;;;;;4.32;54.62;99648.19;6285567;20;3659587;-43
2022/03/03 07:22:18;;;;;;;;;84.00;62.00;;;;;3.93;54.63;99646.03;6287216;20;3644022;-43
2022/03/03 07:25:05;;;;;;;;;81.00;62.00;;;;;3.20;56.95;99649.38;6319100;20;3638820;-42
2022/03/03 07:27:41;;;;;;;;;81.67;62.67;;;;;3.39;56.90;99644.31;6317203;20;3648188;-43
2022/03/03 07:30:15;;;;;;;;;82.00;63.00;;;;;3.21;57.32;99636.06;6320707;20;2787800;-43
2022/03/03 07:33:08;;;;;;;;;83.67;63.67;;;;;2.77;58.27;99640.97;6286358;20;3643994;-44
2022/03/03 07:35:43;;;;;;;;;86.00;63.00;;;;;3.00;59.01;99642.03;6316939;20;3654407;-42
2022/03/03 07:38:19;;;;;;;;;78.67;57.67;;;;;3.93;58.14;99638.06;6320801;20;3648416;-43
2022/03/03 07:40:50;;;;;;;;;83.67;61.00;;;;;3.79;57.38;99637.66;6320341;20;3650258;-43
2022/03/03 07:43:20;;;;;;;;;95.33;70.33;;;;;3.77;55.35;99639.53;6320915;20;3666875;-43
2022/03/03 07:45:49;;;;;;;;;79.67;59.33;;;;;4.07;54.44;99633.13;6286780;20;3651256;-44
2022/03/03 07:48:22;;;;;;;;;60.00;48.00;;;;;4.04;54.50;99635.88;6319579;20;2500276;-44
2022/03/03 07:50:54;;;;;;;;;75.33;57.00;;;;;4.33;54.82;99632.16;6288383;20;3637808;-44
2022/03/03 07:53:22;;;;;;;;;61.50;47.50;;;;;4.66;54.46;99633.59;6319155;20;2859608;-43
2022/03/03 07:56:03;;;;;;;;;78.67;57.00;;;;;5.10;54.13;99631.00;6288826;20;3648234;-43
2022/03/03 07:58:41;;;;;;;;;74.00;54.33;;;;;5.00;53.96;99622.50;6319257;20;2876112;-45
2022/03/03 08:01:17;;;;;;;;;75.33;56.33;;;;;4.76;54.89;99627.00;6318339;20;3634684;-46
2022/03/03 08:03:47;;;;;;;;;68.33;53.67;;;;;5.38;52.54;99620.13;6317914;20;2888052;-45
2022/03/03 08:06:19;;;;;;;;;70.50;55.00;;;;;5.15;53.31;99626.38;6316433;20;2875279;-43
2022/03/03 08:08:51;;;;;;;;;78.67;58.67;;;;;5.71;52.70;99629.34;6285122;20;3639903;-42
2022/03/03 08:11:23;;;;;;;;;66.50;49.00;;;;;5.31;52.69;99614.16;6316160;20;2872177;-44
2022/03/03 08:13:54;;;;;;;;;63.00;50.33;;;;;6.38;51.30;99617.53;6286009;20;2860665;-42
2022/03/03 08:16:24;;;;;;;;;74.67;57.00;;;;;6.23;51.49;99615.56;6316167;20;3631467;-41
2022/03/03 08:19:00;;;;;;;;;66.00;47.33;;;;;6.43;49.85;99612.00;6319240;20;3638776;-43
2022/03/03 08:21:31;;;;;;;;;56.50;44.00;;;;;6.46;49.93;99611.00;6319937;20;2860658;-44
2022/03/03 08:24:02;;;;;;;;;59.00;48.00;;;;;6.44;49.90;99613.72;6287823;20;2856629;-41
2022/03/03 08:26:31;;;;;;;;;54.00;40.00;;;;;6.27;48.54;99611.84;6285959;20;3617940;-43
2022/03/03 08:29:01;;;;;;;;;47.67;38.67;;;;;6.64;47.96;99606.63;6313411;20;3609663;-41
2022/03/03 08:31:44;;;;;;;;;41.33;36.33;;;;;7.33;46.54;99605.97;6320045;20;2864003;-41
2022/03/03 08:34:45;;;;;;;;;53.33;35.00;;;;;6.72;47.16;99602.66;6316634;20;3654429;-42
2022/03/03 08:37:38;;;;;;;;;45.67;37.33;;;;;6.56;47.16;99604.31;6315541;20;3609691;-41
2022/03/03 08:40:18;;;;;;;;;44.67;33.33;;;;;7.00;46.14;99607.53;6316459;20;3624206;-42
2022/03/03 08:42:56;;;;;;;;;64.67;49.67;;;;;6.92;46.77;99604.34;6318479;20;3632546;-41
2022/03/03 08:45:29;;;;;;;;;96.67;77.00;;;;;7.51;46.16;99607.72;6318724;20;3672143;-42
2022/03/03 08:48:10;;;;;;;;;42.50;37.50;;;;;7.56;45.25;99600.34;6285293;20;2850314;-41
2022/03/03 08:50:42;;;;;;;;;46.50;38.50;;;;;7.17;46.29;99606.72;6284714;20;2852411;-43
2022/03/03 08:53:12;;;;;;;;;54.67;39.67;;;;;7.20;45.76;99605.69;6287805;20;3640924;-42
2022/03/03 08:55:42;;;;;;;;;47.00;39.00;;;;;7.26;45.12;99602.72;6318621;20;3586921;-42
2022/03/03 08:58:12;;;;;;;;;47.67;37.33;;;;;7.59;45.37;99602.84;6316584;20;2846205;-42
2022/03/03 09:00:43;;;;;;;;;47.00;37.00;;;;;7.66;44.85;99598.94;6316733;20;3613790;-42
2022/03/03 09:03:13;;;;;;;;;41.33;35.00;;;;;7.91;44.57;99597.66;6316916;20;3619012;-42
2022/03/03 09:05:42;;;;;;;;;39.00;36.67;;;;;7.60;45.78;99599.22;6321297;20;3602296;-44
2022/03/03 09:08:11;;;;;;;;;41.50;37.50;;;;;7.71;45.27;99593.31;6287435;20;2858619;-44
2022/03/03 09:10:41;;;;;;;;;55.50;41.00;;;;;7.34;45.75;99594.31;6288281;20;2873190;-41
2022/03/03 09:13:10;;;;;;;;;51.00;39.67;;;;;7.54;44.83;99596.00;6285582;20;3626372;-41
2022/03/03 09:15:39;;;;;;;;;60.00;45.50;;;;;7.69;45.04;99596.09;6319207;20;3487744;-42
2022/03/03 09:18:08;;;;;;;;;56.50;43.00;;;;;7.77;44.67;99602.88;6316925;20;2855657;-43
2022/03/03 09:20:38;;;;;;;;;40.67;35.67;;;;;7.28;45.50;99595.50;6285570;20;2866466;-43
2022/03/03 09:23:08;;;;;;;;;46.67;38.33;;;;;6.68;46.27;99587.72;6317687;20;3614824;-42
2022/03/03 09:25:37;;;;;;;;;56.00;42.67;;;;;7.56;46.03;99600.34;6322009;20;3605463;-42
2022/03/03 09:28:07;;;;;;;;;65.00;51.33;;;;;7.99;44.30;99598.13;6286267;20;2870175;-41
2022/03/03 09:30:38;;;;;;;;;70.67;53.67;;;;;7.44;45.49;99606.28;6316248;20;3641999;-43
2022/03/03 09:33:08;;;;;;;;;47.00;39.00;;;;;7.79;44.10;99600.94;6318331;20;3607669;-42
2022/03/03 09:35:37;;;;;;;;;55.67;40.67;;;;;7.64;44.86;99606.16;6320362;20;3618997;-43
2022/03/03 09:38:06;;;;;;;;;37.00;31.50;;;;;7.80;43.65;99597.34;6286878;20;2860729;-42
2022/03/03 09:40:35;;;;;;;;;44.00;38.67;;;;;7.84;43.44;99598.91;6280531;20;2854433;-42
2022/03/03 09:43:07;;;;;;;;;40.33;34.33;;;;;8.03;42.66;99589.00;6318305;20;2873223;-42
2022/03/03 09:45:38;;;;;;;;;36.00;32.00;;;;;8.10;43.02;99589.53;6317915;20;3607560;-43
2022/03/03 09:48:09;;;;;;;;;47.00;37.33;;;;;8.48;42.38;99594.69;6286293;20;3608583;-43
2022/03/03 09:50:41;;;;;;;;;45.33;37.00;;;;;8.93;41.36;99598.44;6315009;20;3607562;-45
2022/03/03 09:53:16;;;;;;;;;43.33;37.33;;;;;7.39;43.86;99581.59;6287401;20;3614837;-44
2022/03/03 09:55:49;;;;;;;;;47.33;39.00;;;;;8.32;42.36;99584.78;6316069;20;2865935;-43
2022/03/03 09:58:19;;;;;;;;;50.33;42.67;;;;;8.62;42.13;99591.25;6314094;20;2859668;-42
2022/03/03 10:00:48;;;;;;;;;57.67;44.67;;;;;8.60;43.00;99588.63;6317025;20;3606502;-44
2022/03/03 10:03:18;;;;;;;;;47.00;37.50;;;;;8.12;43.27;99583.16;6316392;20;2855490;-42
2022/03/03 10:05:53;;;;;;;;;38.00;34.67;;;;;8.04;42.74;99580.03;6286778;20;2858677;-42
2022/03/03 10:08:25;;;;;;;;;41.33;36.67;;;;;8.28;42.68;99579.66;6319513;20;3591898;-44
2022/03/03 10:11:02;;;;;;;;;47.00;37.33;;;;;8.32;41.59;99584.78;6282721;20;3615834;-43
2022/03/03 10:13:52;;;;;;;;;42.67;39.67;;;;;8.85;41.47;99577.44;6317708;20;3606597;-46
2022/03/03 10:16:29;;;;;;;;;43.67;35.00;;;;;8.96;40.80;99588.41;6283600;20;3632509;-44
2022/03/03 10:19:05;;;;;;;;;41.00;38.67;;;;;8.93;41.87;99582.38;6319363;20;3599273;-43
2022/03/03 10:21:41;;;;;;;;;37.67;34.33;;;;;9.17;40.05;99575.59;6284746;20;3616938;-42
2022/03/03 10:24:30;;;;;;;;;41.33;33.00;;;;;8.29;41.82;99568.91;6319778;20;3616905;-42
2022/03/03 10:27:08;;;;;;;;;72.33;53.33;;;;;9.05;41.89;99578.13;6286082;20;3646098;-43
2022/03/03 10:29:37;;;;;;;;;48.67;38.00;;;;;8.96;41.45;99569.66;6314999;20;2865074;-43
2022/03/03 10:32:07;;;;;;;;;45.33;40.00;;;;;8.36;40.86;99564.06;6315061;20;3606534;-45
2022/03/03 10:34:38;;;;;;;;;53.33;40.00;;;;;8.75;41.56;99568.19;6315939;20;3627442;-46
2022/03/03 10:37:10;;;;;;;;;45.33;39.67;;;;;9.42;40.97;99560.78;6318256;20;3606559;-42
2022/03/03 10:39:48;;;;;;;;;43.67;37.00;;;;;8.67;41.28;99554.38;6281724;20;2861740;-43
2022/03/03 10:42:24;;;;;;;;;47.50;38.50;;;;;9.01;41.04;99561.38;6316293;20;2857593;-43
2022/03/03 10:45:19;;;;;;;;;51.00;38.67;;;;;8.95;40.34;99557.22;6285358;20;2872224;-45
2022/03/03 10:48:06;;;;;;;;;48.00;39.00;;;;;9.39;41.05;99551.09;6314946;20;2859653;-44
2022/03/03 10:50:51;;;;;;;;;43.67;39.00;;;;;9.47;40.88;99547.97;6307618;20;2875379;-44
2022/03/03 10:53:24;;;;;;;;;59.33;45.00;;;;;10.04;39.72;99548.09;6317627;20;2864944;-41
2022/03/03 10:56:14;;;;;;;;;40.67;34.33;;;;;9.15;40.27;99539.16;6324826;20;3597208;-42
2022/03/03 10:59:01;;;;;;;;;42.67;37.67;;;;;9.81;39.29;99536.06;6288460;20;2867033;-42
2022/03/03 11:01:33;;;;;;;;;45.00;37.33;;;;;9.94;38.96;99540.69;6320781;20;3599243;-43
2022/03/03 11:04:05;;;;;;;;;46.33;36.33;;;;;9.71;38.91;99540.25;6287315;20;2861761;-45
2022/03/03 11:06:34;;;;;;;;;39.33;35.33;;;;;9.62;38.96;99530.97;6322187;20;3594064;-44
2022/03/03 11:09:05;;;;;;;;;43.00;36.50;;;;;9.47;38.97;99525.66;6286798;20;2850495;-44
2022/03/03 11:11:34;;;;;;;;;42.67;36.67;;;;;9.52;39.04;99519.06;6288395;20;3612813;-43
2022/03/03 11:14:05;;;;;;;;;43.67;38.00;;;;;9.91;38.54;99517.63;6320534;20;2853403;-43
2022/03/03 11:16:36;;;;;;;;;44.00;35.33;;;;;8.74;40.03;99512.91;6317276;20;3605473;-44
2022/03/03 11:19:06;;;;;;;;;71.33;54.33;;;;;9.63;39.55;99511.25;6320472;20;3632495;-44
2022/03/03 11:21:35;;;;;;;;;40.67;36.00;;;;;9.08;39.82;99505.63;6323790;20;3582494;-44
2022/03/03 11:24:05;;;;;;;;;43.33;33.67;;;;;9.55;38.86;99501.94;6289142;20;3626306;-43